• Join FlightAware (Why Join?)
  • Login
  • US Flag 
01:53AM EDT


 

Airport Tracker/Info


-or-


 

Live Flight TrackerFlight Track Log ✈ ASH3770 ✈ 15-May-2013 ✈ KPIT - KORD

Flight Track Log - Related Links

Times and Time Zones

All times are in EDT time to prevent confusion due to time zone crossing. See the ASH3770 flight status page for this flight to view local times or setup timezone preferences in your user account.

Time Position Orientation Groundspeed Altitude Reporting Facility
EDT Latitude Longitude Course Direction KTS MPH feet Rate Location/Type
06:37PM 40.5025 -80.3347 282° West 156 180 3,800  Level Cleveland Center
06:38PM 40.5111 -80.4083 279° West 185 213 5,900 2,400 Climbing Cleveland Center
06:39PM 40.5319 -80.4956 287° West 222 255 8,700 2,520 Climbing Cleveland Center
06:40PM 40.5508 -80.5858 285° West 244 281 11,000 2,040 Climbing Cleveland Center
06:41PM 40.5736 -80.6814 287° West 264 304 12,800 1,800 Climbing Cleveland Center
06:42PM 40.6397 -80.9588 288° West  Level FlightAware Approximate
06:42PM 40.5986 -80.7908 287° West 293 337 14,700  Level Cleveland Center
06:43PM 40.6639 -81.0834 282° West  Level FlightAware Approximate
06:43PM 40.6253 -80.9058 287° West 311 358 16,900  Level Cleveland Center
06:44PM 40.6522 -81.0208 287° West 323 372 18,700 1,800 Climbing Cleveland Center
06:45PM 40.6786 -81.1417 286° West 334 384 20,500 1,680 Climbing Cleveland Center
06:46PM 40.7072 -81.2650 287° West 341 392 22,100 1,500 Climbing Cleveland Center
06:47PM 40.7333 -81.3914 285° West 351 404 23,500 1,260 Climbing Cleveland Center
06:48PM 40.7594 -81.5261 284° West 363 418 24,700 1,200 Climbing Cleveland Center
06:49PM 40.7833 -81.6608 283° West 375 432 26,000 1,200 Climbing Cleveland Center
06:50PM 40.8092 -81.7956 284° West 380 437 27,200 960 Climbing Cleveland Center
06:51PM 40.8347 -81.9333 284° West 380 437 28,000 840 Climbing Cleveland Center
06:52PM 40.8600 -82.0767 283° West 385 443 28,900 900 Climbing Cleveland Center
06:53PM 40.8850 -82.2200 283° West 397 457 29,800 900 Climbing Cleveland Center
06:54PM 40.9100 -82.3636 283° West 402 463 30,700 1,200 Climbing Cleveland Center
06:55PM 40.9369 -82.5072 284° West 402 463 32,300 1,200 Climbing Cleveland Center
06:56PM 40.9636 -82.6481 284° West 395 455 33,200 960 Climbing Cleveland Center
06:57PM 40.9881 -82.7892 283° West 395 455 34,300 1,020 Climbing Cleveland Center
06:58PM 41.0122 -82.9303 283° West 395 455 35,300 840 Climbing Cleveland Center
06:59PM 41.0383 -83.0828 283° West 390 449 36,000 300 Climbing Cleveland Center
07:00PM 41.0622 -83.2269 282° West 396 456 36,000  Level Cleveland Center
07:01PM 41.0858 -83.3683 283° West 396 456 36,000  Level Cleveland Center
07:02PM 41.1050 -83.5208 280° West 413 475 36,000  Level Cleveland Center
07:03PM 41.1322 -83.6708 284° West 418 481 36,000  Level Cleveland Center
07:04PM 41.1572 -83.8239 282° West 418 481 36,000 -180 Level Cleveland Center
07:05PM 41.1842 -83.9742 283° West 418 481 35,700 -780 Descending Cleveland Center
07:07PM 41.2233 -84.2144 282° West 430 495 34,100 -660 Descending Chicago Center
07:08PM 41.2275 -84.3725 272° West 428 493 34,000 -60 Descending Chicago Center
07:09PM 41.2306 -84.5206 272° West 409 471 34,000  Level Chicago Center
07:10PM 41.2350 -84.6589 272° West 385 443 34,000  Level Chicago Center
07:11PM 41.2392 -84.7972 272° West 377 434 34,000 -420 Level Chicago Center
07:12PM 41.2447 -84.9683 273° West 381 438 33,200 -1,020 Descending Chicago Center
07:13PM 41.2483 -85.1208 272° West 402 463 32,000 -1,200 Descending Chicago Center
07:14PM 41.2244 -85.2692 258° West 422 486 30,800 -1,020 Descending Chicago Center
07:15PM 41.1461 -85.3847 228° Southwest 421 484 30,000 -540 Descending Chicago Center
07:16PM 41.1525 -85.5217 274° West 389 448 29,700 -840 Descending Chicago Center
07:17PM 41.1861 -85.6611 288° West 392 451 28,300 -1,500 Descending Chicago Center
07:18PM 41.2236 -85.8056 289° West 406 467 26,700 -1,620 Descending Chicago Center
07:19PM 41.2614 -85.9542 289° West 419 482 25,000 -840 Descending Chicago Center
07:20PM 41.3047 -86.1214 289° West 399 459 25,000 -300 Level Chicago Center
07:22PM 41.3394 -86.2592 289° West 393 452 24,400 -1,200 Descending Chicago Center
07:23PM 41.3736 -86.3972 288° West 393 452 22,600 -1,740 Descending Chicago Center
07:24PM 41.4069 -86.5267 289° West 373 429 20,900 -1,680 Descending Chicago Center
07:25PM 41.4364 -86.6500 288° West 356 410 19,200 -1,740 Descending Chicago Center
07:26PM 41.4683 -86.7778 288° West 344 396 17,400 -1,800 Descending Chicago Center
07:27PM 41.4969 -86.8961 288° West 339 390 15,600 -1,860 Descending Chicago Center
07:28PM 41.5325 -87.0364 289° West 337 388 13,600 -1,740 Descending Chicago Center
07:29PM 41.5594 -87.1503 288° West 327 376 12,100 -1,200 Descending Chicago Center
07:29PM 41.5667 -87.2000 281° West 334 384 12,000 -240 Descending Chicago TRACON
07:30PM 41.6167 -87.3000 304° West 334 384 11,800 -540 Descending Chicago TRACON
07:31PM 41.6508 -87.3636 306° West 341 392 11,100 -1,080 Descending Chicago Center
07:32PM 41.7047 -87.4639 306° West 338 389 10,000 -540 Descending Chicago Center
07:33PM 41.7686 -87.5839 306° West 335 386 10,000  Level Chicago Center
07:34PM 41.8233 -87.6861 306° West 339 390 10,000 -480 Level Chicago Center
07:35PM 41.8833 -87.7833 310° West 273 314 9,100 -960 Descending Chicago TRACON
07:36PM 41.8833 -87.8833 270° West 265 305 8,000 -780 Descending Chicago TRACON
07:37PM 41.8833 -87.9833 270° West 236 272 7,600 -780 Descending Chicago TRACON
07:38PM 41.8833 -88.0500 270° West 194 223 6,500 -1,200 Descending Chicago TRACON
07:39PM 41.8833 -88.1167 270° West 186 214 5,200 -1,560 Descending Chicago TRACON
07:40PM 41.9500 -88.1167 360° North 205 236 3,300 -1,740 Descending Chicago TRACON